PBD4530 UUEE-UWLL
Flight info
| Callsign | PBD4530 |
|---|---|
| Flight time | N/A |
| Altitude | 37000 |
| Route | KOGOM3H KOGOM L94 EKPIR M864 IBROT T784 OTKOL T787 OKSUD T778 TERDI TERDI1F |
| Aircraft | B738/M-SDE2E3FGHIRWXY/LB1 |
Departure
| Time | N/A |
|---|---|
| Airport | Sheremetyevo International Airport (UUEE) |
Arrival
| Time | 2026-04-30 14:09 |
|---|---|
| Airport | Ulyanovsk Baratayevka Airport (UWLL) |
| Time | Latitude | Longitude | Altitude | Speed | Heading |
|---|---|---|---|---|---|
| 2026-04-30 13:48 | 54.66773 | 46.28835 | 30884 ft | 412 kts | 146° |
| 2026-04-30 13:49 | 54.64529 | 46.31873 | 30519 ft | 406 kts | 147° |
| 2026-04-30 13:49 | 54.62322 | 46.34873 | 29825 ft | 402 kts | 147° |
| 2026-04-30 13:49 | 54.60164 | 46.37813 | 29117 ft | 398 kts | 148° |
| 2026-04-30 13:49 | 54.58027 | 46.40727 | 28454 ft | 392 kts | 148° |
| 2026-04-30 13:50 | 54.55909 | 46.43615 | 27795 ft | 386 kts | 149° |
| 2026-04-30 13:50 | 54.51792 | 46.49229 | 26318 ft | 377 kts | 150° |
| 2026-04-30 13:50 | 54.49757 | 46.52001 | 25529 ft | 372 kts | 150° |
| 2026-04-30 13:51 | 54.47753 | 46.54727 | 24715 ft | 368 kts | 151° |
| 2026-04-30 13:51 | 54.45779 | 46.57405 | 23878 ft | 363 kts | 150° |
| 2026-04-30 13:51 | 54.43814 | 46.60070 | 23052 ft | 359 kts | 150° |
| 2026-04-30 13:51 | 54.41863 | 46.62711 | 22177 ft | 356 kts | 149° |
| 2026-04-30 13:52 | 54.39948 | 46.65297 | 21354 ft | 352 kts | 150° |
| 2026-04-30 13:52 | 54.38025 | 46.67890 | 20766 ft | 350 kts | 150° |
| 2026-04-30 13:52 | 54.36119 | 46.70457 | 20297 ft | 347 kts | 150° |
| 2026-04-30 13:52 | 54.34218 | 46.73015 | 19805 ft | 345 kts | 149° |
| 2026-04-30 13:53 | 54.32359 | 46.75522 | 19347 ft | 344 kts | 148° |
| 2026-04-30 13:53 | 54.30553 | 46.78264 | 18881 ft | 347 kts | 142° |
| 2026-04-30 13:53 | 54.29055 | 46.81465 | 18403 ft | 355 kts | 129° |
| 2026-04-30 13:53 | 54.27936 | 46.85298 | 17975 ft | 360 kts | 117° |
| 2026-04-30 13:54 | 54.27218 | 46.89355 | 17531 ft | 363 kts | 109° |
| 2026-04-30 13:54 | 54.26814 | 46.93612 | 16811 ft | 365 kts | 98° |
| 2026-04-30 13:54 | 54.26936 | 46.97951 | 16099 ft | 367 kts | 84° |
| 2026-04-30 13:54 | 54.27473 | 47.02174 | 15432 ft | 366 kts | 79° |
| 2026-04-30 13:55 | 54.28155 | 47.06370 | 14752 ft | 362 kts | 76° |
| 2026-04-30 13:55 | 54.28899 | 47.10454 | 14193 ft | 361 kts | 75° |
| 2026-04-30 13:55 | 54.29649 | 47.14484 | 13652 ft | 359 kts | 75° |
| 2026-04-30 13:55 | 54.30387 | 47.18532 | 13132 ft | 358 kts | 75° |
| 2026-04-30 13:56 | 54.31109 | 47.22604 | 12592 ft | 356 kts | 75° |
| 2026-04-30 13:56 | 54.31811 | 47.26638 | 12056 ft | 354 kts | 75° |
| 2026-04-30 13:56 | 54.32497 | 47.30625 | 11537 ft | 352 kts | 75° |
| 2026-04-30 13:56 | 54.33185 | 47.34639 | 10995 ft | 350 kts | 75° |
| 2026-04-30 13:57 | 54.33859 | 47.38600 | 10516 ft | 346 kts | 75° |
| 2026-04-30 13:57 | 54.34522 | 47.42510 | 10314 ft | 333 kts | 75° |
| 2026-04-30 13:57 | 54.35147 | 47.46210 | 10208 ft | 319 kts | 75° |
| 2026-04-30 13:57 | 54.35750 | 47.49791 | 9907 ft | 313 kts | 75° |
| 2026-04-30 13:58 | 54.36354 | 47.53389 | 9465 ft | 311 kts | 75° |
| 2026-04-30 13:58 | 54.37539 | 47.60406 | 8692 ft | 305 kts | 74° |
| 2026-04-30 13:58 | 54.38125 | 47.63873 | 8314 ft | 302 kts | 74° |
| 2026-04-30 13:59 | 54.38696 | 47.67267 | 7943 ft | 298 kts | 75° |
| 2026-04-30 13:59 | 54.39267 | 47.70658 | 7575 ft | 295 kts | 75° |
| 2026-04-30 13:59 | 54.39831 | 47.74010 | 7201 ft | 292 kts | 75° |
| 2026-04-30 13:59 | 54.40391 | 47.77349 | 6837 ft | 289 kts | 75° |
| 2026-04-30 14:00 | 54.40940 | 47.80627 | 6476 ft | 286 kts | 75° |
| 2026-04-30 14:00 | 54.42012 | 47.87081 | 5767 ft | 279 kts | 75° |
| 2026-04-30 14:00 | 54.42542 | 47.90272 | 5400 ft | 277 kts | 74° |
| 2026-04-30 14:01 | 54.43064 | 47.93436 | 5060 ft | 273 kts | 75° |
| 2026-04-30 14:01 | 54.43573 | 47.96532 | 4721 ft | 271 kts | 74° |
| 2026-04-30 14:01 | 54.44089 | 47.99647 | 4378 ft | 269 kts | 74° |
| 2026-04-30 14:01 | 54.44593 | 48.02687 | 4005 ft | 268 kts | 74° |
| 2026-04-30 14:02 | 54.45104 | 48.05774 | 3582 ft | 269 kts | 74° |
| 2026-04-30 14:02 | 54.45610 | 48.08849 | 3232 ft | 267 kts | 74° |
| 2026-04-30 14:02 | 54.46110 | 48.11899 | 2888 ft | 264 kts | 74° |
| 2026-04-30 14:02 | 54.46603 | 48.14930 | 2607 ft | 260 kts | 74° |
| 2026-04-30 14:03 | 54.47077 | 48.17857 | 2493 ft | 249 kts | 74° |
| 2026-04-30 14:03 | 54.47526 | 48.20628 | 2446 ft | 237 kts | 74° |
| 2026-04-30 14:03 | 54.47912 | 48.23334 | 2466 ft | 234 kts | 81° |
| 2026-04-30 14:03 | 54.47857 | 48.26120 | 2456 ft | 234 kts | 109° |
| 2026-04-30 14:04 | 54.47098 | 48.28555 | 2487 ft | 228 kts | 125° |
| 2026-04-30 14:04 | 54.46219 | 48.30658 | 2483 ft | 212 kts | 126° |
| 2026-04-30 14:04 | 54.45404 | 48.32694 | 2470 ft | 199 kts | 123° |
| 2026-04-30 14:04 | 54.44664 | 48.34663 | 2475 ft | 199 kts | 122° |
| 2026-04-30 14:05 | 54.43831 | 48.36568 | 2475 ft | 198 kts | 137° |
| 2026-04-30 14:05 | 54.42636 | 48.37629 | 2475 ft | 196 kts | 172° |
| 2026-04-30 14:05 | 54.41310 | 48.37360 | 2475 ft | 193 kts | 204° |
| 2026-04-30 14:05 | 54.40115 | 48.36319 | 2477 ft | 193 kts | 209° |
| 2026-04-30 14:06 | 54.38938 | 48.35207 | 2476 ft | 192 kts | 211° |
| 2026-04-30 14:06 | 54.36758 | 48.32972 | 2233 ft | 169 kts | 213° |
| 2026-04-30 14:07 | 54.34906 | 48.31007 | 1934 ft | 152 kts | 213° |
| 2026-04-30 14:07 | 54.34030 | 48.30072 | 1729 ft | 146 kts | 213° |
| 2026-04-30 14:07 | 54.33202 | 48.29187 | 1514 ft | 138 kts | 213° |
| 2026-04-30 14:08 | 54.31555 | 48.27426 | 1152 ft | 140 kts | 213° |
| 2026-04-30 14:08 | 54.30744 | 48.26559 | 962 ft | 139 kts | 214° |
| 2026-04-30 14:08 | 54.29120 | 48.24811 | 598 ft | 136 kts | 213° |
| 2026-04-30 14:09 | 54.28320 | 48.23965 | 416 ft | 134 kts | 210° |
| 2026-04-30 14:09 | 54.27591 | 48.23175 | 398 ft | 103 kts | 212° |
| 2026-04-30 14:09 | 54.26944 | 48.22465 | 420 ft | 14 kts | 224° |
| 2026-04-30 14:10 | 54.26907 | 48.22421 | 421 ft | 1 kts | 121° |
| 2026-04-30 14:10 | 54.26969 | 48.22505 | 420 ft | 24 kts | 35° |
| 2026-04-30 14:10 | 54.27124 | 48.22674 | 413 ft | 27 kts | 32° |
| 2026-04-30 14:10 | 54.27287 | 48.22848 | 407 ft | 28 kts | 32° |
| 2026-04-30 14:11 | 54.27458 | 48.23030 | 401 ft | 29 kts | 32° |
| 2026-04-30 14:11 | 54.27634 | 48.23223 | 396 ft | 30 kts | 31° |
| 2026-04-30 14:11 | 54.27818 | 48.23417 | 389 ft | 31 kts | 33° |
| 2026-04-30 14:11 | 54.28010 | 48.23626 | 379 ft | 33 kts | 32° |
| 2026-04-30 14:12 | 54.28192 | 48.23821 | 369 ft | 22 kts | 33° |
| 2026-04-30 14:12 | 54.28264 | 48.23894 | 368 ft | 7 kts | 10° |
| 2026-04-30 14:12 | 54.28310 | 48.23835 | 367 ft | 9 kts | 303° |
| 2026-04-30 14:12 | 54.28346 | 48.23740 | 366 ft | 9 kts | 302° |
| 2026-04-30 14:13 | 54.28381 | 48.23645 | 366 ft | 9 kts | 302° |
| 2026-04-30 14:13 | 54.28416 | 48.23548 | 365 ft | 9 kts | 302° |
| 2026-04-30 14:13 | 54.28450 | 48.23454 | 364 ft | 9 kts | 301° |
| 2026-04-30 14:13 | 54.28481 | 48.23356 | 364 ft | 9 kts | 290° |
| 2026-04-30 14:14 | 54.28506 | 48.23257 | 363 ft | 9 kts | 300° |
| 2026-04-30 14:14 | 54.28540 | 48.23162 | 362 ft | 9 kts | 301° |
| 2026-04-30 14:14 | 54.28569 | 48.23095 | 360 ft | 6 kts | 330° |
| 2026-04-30 14:14 | 54.28613 | 48.23108 | 359 ft | 7 kts | 27° |
| 2026-04-30 14:15 | 54.28636 | 48.23162 | 358 ft | 5 kts | 97° |
| 2026-04-30 14:15 | 54.28624 | 48.23210 | 358 ft | 2 kts | 120° |
| 2026-04-30 14:15 | 54.28622 | 48.23215 | 358 ft | 0 kts | 121° |